createdAt,value
2023-04-25T00:03:20.111Z,65.46
2023-04-25T00:08:24.417Z,64.61
2023-04-25T00:13:27.859Z,64.19
2023-04-25T00:18:30.828Z,64.19
2023-04-25T00:23:33.721Z,64.52
2023-04-25T00:28:36.640Z,65.03
2023-04-25T00:33:39.525Z,65.81
2023-04-25T00:38:42.498Z,65.87
2023-04-25T00:43:47.255Z,66.26
2023-04-25T00:48:50.474Z,66.21
2023-04-25T00:53:54.069Z,66.37
2023-04-25T00:59:16.669Z,65.67
2023-04-25T01:04:19.858Z,65.83
2023-04-25T01:09:24.152Z,65.88
2023-04-25T01:14:27.373Z,66.02
2023-04-25T01:19:30.498Z,65.78
2023-04-25T01:24:34.237Z,65.05
2023-04-25T01:29:37.566Z,65.11
2023-04-25T01:34:40.532Z,65.60
2023-04-25T01:40:02.142Z,66.05
2023-04-25T01:45:07.678Z,66.02
2023-04-25T01:50:12.415Z,66.32
2023-04-25T01:55:15.768Z,65.79
2023-04-25T02:00:35.492Z,65.25
2023-04-25T02:05:41.618Z,63.88
2023-04-25T02:10:48.146Z,63.54
2023-04-25T02:15:54.637Z,63.23
2023-04-25T02:21:16.386Z,63.85
2023-04-25T02:26:20.079Z,63.86
2023-04-25T02:31:23.056Z,63.68
2023-04-25T02:36:27.888Z,63.47
2023-04-25T02:41:31.016Z,63.66
2023-04-25T02:46:39.278Z,64.00
2023-04-25T02:51:42.947Z,64.67
2023-04-25T02:56:46.094Z,64.67
2023-04-25T03:01:56.385Z,64.09
2023-04-25T03:07:00.745Z,64.84
2023-04-25T03:12:04.088Z,65.03
2023-04-25T03:17:09.109Z,65.36
2023-04-25T03:22:30.886Z,65.73
2023-04-25T03:27:34.061Z,65.38
2023-04-25T03:32:37.184Z,65.04
2023-04-25T03:37:41.805Z,65.34
2023-04-25T03:43:03.279Z,65.14
2023-04-25T03:48:06.471Z,65.90
2023-04-25T03:53:09.970Z,66.88
2023-04-25T03:58:32.629Z,66.08
2023-04-25T04:03:37.571Z,65.77
2023-04-25T04:08:41.811Z,66.79
2023-04-25T04:13:46.388Z,66.26
2023-04-25T04:18:49.459Z,66.54
2023-04-25T04:23:53.757Z,66.50
2023-04-25T04:29:21.971Z,66.15
2023-04-25T04:34:36.348Z,65.99
2023-04-25T04:39:39.686Z,66.28
2023-04-25T04:45:07.783Z,66.53
2023-04-25T04:50:49.213Z,66.67
2023-04-25T04:56:01.918Z,65.46
2023-04-25T05:01:23.751Z,64.93
2023-04-25T05:06:49.872Z,65.15
2023-04-25T05:11:53.322Z,65.77
2023-04-25T05:17:25.331Z,66.13
2023-04-25T05:22:48.553Z,67.56
2023-04-25T05:28:14.791Z,69.35
2023-04-25T05:33:28.646Z,72.18
2023-04-25T05:38:34.523Z,71.69
2023-04-25T05:43:48.788Z,72.47
2023-04-25T05:49:01.929Z,72.85
2023-04-25T05:54:23.695Z,72.96
2023-04-25T05:59:27.037Z,73.41
2023-04-25T06:04:30.504Z,73.78
2023-04-25T06:09:33.643Z,74.15
2023-04-25T06:14:36.786Z,74.13
2023-04-25T06:19:40.082Z,73.87
2023-04-25T06:24:43.285Z,74.21
2023-04-25T06:29:46.371Z,74.14
2023-04-25T06:34:50.587Z,74.05
2023-04-25T06:39:53.664Z,74.14
2023-04-25T06:44:57.201Z,73.05
2023-04-25T06:50:00.581Z,74.27
2023-04-25T06:55:06.225Z,74.31
2023-04-25T07:00:35.568Z,75.32
2023-04-25T07:05:38.786Z,76.25
2023-04-25T07:10:42.160Z,75.95
2023-04-25T07:15:45.117Z,76.48
2023-04-25T07:20:48.496Z,76.42
2023-04-25T07:25:51.608Z,76.65
2023-04-25T07:30:59.307Z,77.39
2023-04-25T07:36:02.255Z,78.39
2023-04-25T07:41:05.480Z,78.46
2023-04-25T07:46:08.705Z,78.35
2023-04-25T07:51:12.802Z,78.57
2023-04-25T07:56:16.457Z,78.54
2023-04-25T08:01:22.826Z,78.79
2023-04-25T08:06:38.397Z,79.32
2023-04-25T08:11:46.357Z,79.29
2023-04-25T08:16:51.955Z,79.23
2023-04-25T08:21:57.763Z,79.78
2023-04-25T08:27:08.894Z,79.46
2023-04-25T08:32:12.482Z,79.74
2023-04-25T08:37:22.108Z,79.36
2023-04-25T08:42:39.546Z,79.79
2023-04-25T08:47:44.555Z,79.14
2023-04-25T08:52:49.332Z,79.21
2023-04-25T08:57:53.763Z,78.75
2023-04-25T09:02:58.194Z,78.46
2023-04-25T09:08:06.058Z,77.91
2023-04-25T09:13:26.915Z,78.45
2023-04-25T09:18:50.723Z,77.89
2023-04-25T09:23:54.899Z,78.78
2023-04-25T09:29:08.484Z,78.03
2023-04-25T09:34:16.914Z,78.37
2023-04-25T09:39:29.854Z,78.41
2023-04-25T09:44:46.894Z,79.18
2023-04-25T09:49:53.061Z,78.35
2023-04-25T09:54:57.466Z,79.17
2023-04-25T10:00:13.260Z,79.38
2023-04-25T10:05:19.868Z,79.20
2023-04-25T10:10:41.639Z,79.53
2023-04-25T10:15:44.970Z,79.43
2023-04-25T10:20:47.898Z,79.67
2023-04-25T10:26:13.988Z,79.96
2023-04-25T10:31:18.677Z,79.97
2023-04-25T10:36:28.378Z,79.22
2023-04-25T10:41:31.341Z,79.41
2023-04-25T10:46:36.165Z,79.84
2023-04-25T10:51:51.660Z,79.54
2023-04-25T10:56:59.892Z,79.80
2023-04-25T11:02:14.452Z,79.95
2023-04-25T11:13:05.285Z,80.01
2023-04-25T11:18:28.406Z,80.44
2023-04-25T11:23:31.977Z,81.08
2023-04-25T11:28:34.859Z,81.50
2023-04-25T11:33:38.032Z,81.66
2023-04-25T11:38:41.613Z,82.05
2023-04-25T11:43:45.004Z,81.96
2023-04-25T11:48:49.219Z,81.53
2023-04-25T11:53:52.435Z,81.39
2023-04-25T11:59:14.644Z,81.47
2023-04-25T12:04:22.893Z,80.48
2023-04-25T12:09:31.677Z,80.79
2023-04-25T12:14:36.960Z,79.86
2023-04-25T12:19:44.917Z,79.64
2023-04-25T12:25:07.120Z,79.76
2023-04-25T12:30:11.797Z,79.43
2023-04-25T12:35:14.629Z,79.58
2023-04-25T12:40:17.780Z,79.50
2023-04-25T12:45:20.510Z,78.93
2023-04-25T12:50:23.442Z,78.74
2023-04-25T12:55:26.601Z,78.49
2023-04-25T13:00:30.815Z,77.59
2023-04-25T13:05:33.628Z,77.49
2023-04-25T13:10:37.457Z,77.53
2023-04-25T13:15:40.754Z,77.62
2023-04-25T13:20:43.683Z,78.34
2023-04-25T13:25:46.509Z,78.68
2023-04-25T13:30:49.384Z,78.26
2023-04-25T13:35:56.619Z,77.74
2023-04-25T13:40:59.670Z,77.97
2023-04-25T13:46:02.593Z,78.10
2023-04-25T13:51:05.699Z,78.42
2023-04-25T13:56:08.595Z,78.76
2023-04-25T14:01:12.006Z,79.45
2023-04-25T14:06:14.950Z,79.03
2023-04-25T14:11:19.452Z,79.15
2023-04-25T14:16:24.121Z,79.73
2023-04-25T14:21:45.242Z,80.61
2023-04-25T14:26:48.155Z,80.87
2023-04-25T14:31:51.144Z,80.97
2023-04-25T14:36:54.024Z,81.25
2023-04-25T14:41:57.556Z,81.85
2023-04-25T14:47:00.745Z,81.79
2023-04-25T14:52:04.346Z,81.96
2023-04-25T14:57:07.540Z,82.46
2023-04-25T15:02:10.781Z,82.57
2023-04-25T15:07:13.455Z,82.26
2023-04-25T15:12:16.351Z,82.04
2023-04-25T15:17:19.215Z,82.52
2023-04-25T15:22:22.392Z,83.10
2023-04-25T15:27:25.253Z,84.22
2023-04-25T15:32:28.181Z,84.79
2023-04-25T15:37:31.795Z,83.51
2023-04-25T15:42:34.725Z,83.79
2023-04-25T15:47:39.022Z,83.80
2023-04-25T15:52:43.924Z,83.93
2023-04-25T15:57:47.969Z,83.39
2023-04-25T16:02:51.803Z,82.56
2023-04-25T16:07:55.002Z,82.62
2023-04-25T16:12:58.000Z,82.80
2023-04-25T16:18:00.961Z,82.57
2023-04-25T16:23:03.920Z,82.17
2023-04-25T16:28:06.984Z,82.21
2023-04-25T16:33:10.203Z,82.22
2023-04-25T16:38:31.466Z,82.04
2023-04-25T16:43:34.650Z,82.39
2023-04-25T16:48:37.531Z,82.66
2023-04-25T16:53:40.425Z,83.03
2023-04-25T16:58:43.548Z,83.09
2023-04-25T17:03:47.865Z,82.92
2023-04-25T17:08:51.482Z,83.56
2023-04-25T17:13:54.744Z,83.93
2023-04-25T17:19:16.452Z,84.36
2023-04-25T17:24:22.087Z,84.59
2023-04-25T17:29:25.148Z,84.95
2023-04-25T17:34:48.326Z,85.42
2023-04-25T17:40:12.350Z,86.04
2023-04-25T17:45:15.412Z,86.24
2023-04-25T17:50:18.732Z,86.09
2023-04-25T17:55:21.706Z,85.95
2023-04-25T18:00:25.011Z,86.17
2023-04-25T18:05:30.468Z,86.68
2023-04-25T18:10:34.552Z,86.72
2023-04-25T18:15:37.586Z,86.89
2023-04-25T18:20:44.723Z,86.66
2023-04-25T18:25:52.169Z,86.40
2023-04-25T18:30:55.154Z,86.19
2023-04-25T18:35:59.809Z,86.18
2023-04-25T18:41:20.978Z,86.04
2023-04-25T18:46:26.116Z,86.02
2023-04-25T18:51:32.574Z,85.48
2023-04-25T18:56:35.949Z,85.88
2023-04-25T19:01:57.713Z,85.69
2023-04-25T19:07:01.406Z,85.54
2023-04-25T19:12:05.272Z,85.47
2023-04-25T19:17:08.237Z,85.35
2023-04-25T19:22:11.821Z,84.60
2023-04-25T19:27:15.149Z,84.69
2023-04-25T19:32:18.004Z,84.58
2023-04-25T19:37:21.064Z,84.43
2023-04-25T19:42:24.291Z,84.79
2023-04-25T19:47:45.521Z,84.91
2023-04-25T19:52:48.506Z,85.61
2023-04-25T19:58:10.006Z,85.95
2023-04-25T20:03:13.083Z,86.46
2023-04-25T20:08:16.463Z,86.77
2023-04-25T20:13:19.312Z,86.75
2023-04-25T20:18:22.214Z,86.71
2023-04-25T20:23:25.219Z,86.61
2023-04-25T20:28:46.911Z,86.62
2023-04-25T20:33:49.849Z,86.74
2023-04-25T20:38:53.213Z,86.89
2023-04-25T20:43:57.118Z,87.03
2023-04-25T20:49:01.739Z,86.54
2023-04-25T20:54:04.684Z,86.54
2023-04-25T20:59:07.752Z,86.21
2023-04-25T21:04:11.065Z,85.93
2023-04-25T21:09:14.491Z,85.96
2023-04-25T21:14:18.767Z,85.70
2023-04-25T21:19:21.713Z,85.76
2023-04-25T21:24:27.094Z,85.74
2023-04-25T21:29:30.038Z,85.85
2023-04-25T21:34:32.944Z,85.69
2023-04-25T21:39:35.824Z,85.63
2023-04-25T21:44:38.761Z,85.70
2023-04-25T21:49:41.732Z,86.01
2023-04-25T21:54:44.785Z,85.83
2023-04-25T21:59:48.270Z,85.56
2023-04-25T22:04:52.656Z,85.70
2023-04-25T22:09:56.058Z,85.68
2023-04-25T22:14:59.839Z,85.64
2023-04-25T22:20:06.032Z,84.90
2023-04-25T22:25:10.157Z,85.28
2023-04-25T22:30:13.618Z,85.30
2023-04-25T22:35:16.867Z,85.41
2023-04-25T22:40:20.085Z,85.41
2023-04-25T22:45:23.036Z,85.67
2023-04-25T22:50:27.248Z,85.65
2023-04-25T22:55:30.252Z,85.86
2023-04-25T23:00:34.608Z,85.65
2023-04-25T23:05:38.556Z,85.91
2023-04-25T23:11:00.401Z,85.57
2023-04-25T23:16:22.400Z,85.80
2023-04-25T23:21:25.635Z,85.94
2023-04-25T23:26:28.437Z,86.16
2023-04-25T23:31:31.414Z,86.60
2023-04-25T23:36:34.578Z,86.51
2023-04-25T23:41:37.987Z,86.45
2023-04-25T23:46:41.365Z,86.74
2023-04-25T23:51:44.435Z,87.06
2023-04-25T23:56:47.359Z,86.89
